createdAt,value
2019-02-26T00:02:26.065Z,20.30
2019-02-26T00:04:56.311Z,19.17
2019-02-26T00:07:25.282Z,19.33
2019-02-26T00:09:53.577Z,21.20
2019-02-26T00:12:24.184Z,18.40
2019-02-26T00:14:54.268Z,17.43
2019-02-26T00:17:21.847Z,17.40
2019-02-26T00:19:49.664Z,16.33
2019-02-26T00:22:18.245Z,17.10
2019-02-26T00:24:46.621Z,15.27
2019-02-26T00:27:14.448Z,16.20
2019-02-26T00:29:42.044Z,17.13
2019-02-26T00:32:11.734Z,16.33
2019-02-26T00:34:41.728Z,16.57
2019-02-26T00:37:09.268Z,18.40
2019-02-26T00:39:37.169Z,17.10
2019-02-26T00:42:05.335Z,17.83
2019-02-26T00:44:35.291Z,17.23
2019-02-26T00:47:04.438Z,16.73
2019-02-26T00:49:32.283Z,21.70
2019-02-26T00:51:59.871Z,19.17
2019-02-26T00:54:29.199Z,17.50
2019-02-26T00:57:01.128Z,18.30
2019-02-26T00:59:28.429Z,20.90
2019-02-26T01:01:56.994Z,21.17
2019-02-26T01:04:25.650Z,20.63
2019-02-26T01:06:53.104Z,20.70
2019-02-26T01:09:20.876Z,21.43
2019-02-26T01:11:49.793Z,21.90
2019-02-26T01:14:18.653Z,24.87
2019-02-26T01:16:48.274Z,25.17
2019-02-26T01:19:17.525Z,27.30
2019-02-26T01:21:45.278Z,28.40
2019-02-26T01:24:13.182Z,28.93
2019-02-26T01:26:42.683Z,30.37
2019-02-26T01:29:10.388Z,30.10
2019-02-26T01:31:37.933Z,29.60
2019-02-26T01:34:05.509Z,30.43
2019-02-26T01:36:33.090Z,27.27
2019-02-26T01:39:00.679Z,31.17
2019-02-26T01:41:28.191Z,28.87
2019-02-26T01:43:55.819Z,23.97
2019-02-26T01:46:23.684Z,22.87
2019-02-26T01:48:52.982Z,24.30
2019-02-26T01:51:21.882Z,22.90
2019-02-26T01:53:51.890Z,24.47
2019-02-26T01:56:20.489Z,25.00
2019-02-26T01:58:56.296Z,26.77
2019-02-26T02:01:19.218Z,27.57
2019-02-26T02:03:48.805Z,29.67
2019-02-26T02:06:18.180Z,31.13
2019-02-26T02:11:40.741Z,25.70
2019-02-26T02:14:10.295Z,23.80
2019-02-26T02:16:38.240Z,26.67
2019-02-26T02:19:06.169Z,27.27
2019-02-26T02:21:35.631Z,25.87
2019-02-26T02:24:03.202Z,24.47
2019-02-26T02:26:31.004Z,21.93
2019-02-26T02:28:58.877Z,20.43
2019-02-26T02:34:09.127Z,18.27
2019-02-26T02:36:36.696Z,19.70
2019-02-26T02:39:10.395Z,19.60
2019-02-26T02:41:39.161Z,19.63
2019-02-26T02:44:05.919Z,21.00
2019-02-26T02:46:34.238Z,34.90
2019-02-26T02:49:04.738Z,31.20
2019-02-26T02:51:34.744Z,29.33
2019-02-26T02:54:02.266Z,29.17
2019-02-26T02:56:30.848Z,28.53
2019-02-26T02:58:59.514Z,29.47
2019-02-26T03:01:28.575Z,27.23
2019-02-26T03:04:00.531Z,24.93
2019-02-26T03:06:28.088Z,24.07
2019-02-26T03:08:55.391Z,23.90
2019-02-26T03:11:23.248Z,22.83
2019-02-26T03:13:51.907Z,22.57
2019-02-26T03:16:21.960Z,23.33
2019-02-26T03:18:49.625Z,26.13
2019-02-26T03:21:19.563Z,29.50
2019-02-26T03:23:47.357Z,30.33
2019-02-26T03:26:15.214Z,35.13
2019-02-26T03:28:44.644Z,36.97
2019-02-26T03:31:13.810Z,34.53
2019-02-26T03:33:41.392Z,33.80
2019-02-26T03:36:11.145Z,32.90
2019-02-26T03:38:40.878Z,30.67
2019-02-26T03:41:08.472Z,33.80
2019-02-26T03:43:37.105Z,33.10
2019-02-26T03:46:05.812Z,29.00
2019-02-26T03:48:33.379Z,72.57
2019-02-26T03:51:01.468Z,41.40
2019-02-26T03:53:31.364Z,31.80
2019-02-26T03:56:01.931Z,30.67
2019-02-26T03:58:28.046Z,30.73
2019-02-26T04:00:55.815Z,30.13
2019-02-26T04:03:23.363Z,30.63
2019-02-26T04:05:50.935Z,30.53
2019-02-26T04:08:21.896Z,30.23
2019-02-26T04:10:49.925Z,32.13
2019-02-26T04:13:18.252Z,31.63
2019-02-26T04:15:45.858Z,31.17
2019-02-26T04:18:13.744Z,31.80
2019-02-26T04:20:44.347Z,31.03
2019-02-26T04:23:13.444Z,31.43
2019-02-26T04:25:51.467Z,27.60
2019-02-26T04:28:33.002Z,29.43
2019-02-26T04:31:23.538Z,28.00
2019-02-26T04:34:09.274Z,29.30
2019-02-26T04:36:56.337Z,30.97
2019-02-26T04:39:34.097Z,30.33
2019-02-26T04:42:38.413Z,33.73
2019-02-26T04:45:29.284Z,31.77
2019-02-26T04:47:58.358Z,31.47
2019-02-26T04:50:28.789Z,32.17
2019-02-26T04:52:59.112Z,33.00
2019-02-26T04:55:29.016Z,33.33
2019-02-26T04:57:55.344Z,33.23
2019-02-26T05:00:23.691Z,37.07
2019-02-26T05:02:52.424Z,37.23
2019-02-26T05:05:22.439Z,39.00
2019-02-26T05:07:50.015Z,31.97
2019-02-26T05:10:20.373Z,32.17
2019-02-26T05:12:47.541Z,34.37
2019-02-26T05:15:18.090Z,31.97
2019-02-26T05:17:45.573Z,32.03
2019-02-26T05:20:16.497Z,31.10
2019-02-26T05:22:43.963Z,32.70
2019-02-26T05:25:14.736Z,31.57
2019-02-26T05:27:44.716Z,33.83
2019-02-26T05:30:13.200Z,36.63
2019-02-26T05:32:40.251Z,35.77
2019-02-26T05:35:08.197Z,36.17
2019-02-26T05:37:40.199Z,34.93
2019-02-26T05:40:07.102Z,37.73
2019-02-26T05:42:34.626Z,38.13
2019-02-26T05:45:05.377Z,35.90
2019-02-26T05:47:31.764Z,35.50
2019-02-26T05:50:01.862Z,34.47
2019-02-26T05:52:30.860Z,34.60
2019-02-26T05:54:58.510Z,37.00
2019-02-26T05:57:32.404Z,40.53
2019-02-26T05:59:56.039Z,41.20
2019-02-26T06:02:24.601Z,41.40
2019-02-26T06:04:53.249Z,41.27
2019-02-26T06:07:24.061Z,43.47
2019-02-26T06:09:51.660Z,41.07
2019-02-26T06:12:20.725Z,38.37
2019-02-26T06:14:48.645Z,38.07
2019-02-26T06:17:17.929Z,43.50
2019-02-26T06:19:46.805Z,43.50
2019-02-26T06:22:18.181Z,43.70
2019-02-26T06:24:45.501Z,43.47
2019-02-26T06:27:15.809Z,44.60
2019-02-26T06:29:42.452Z,43.40
2019-02-26T06:32:11.998Z,41.23
2019-02-26T06:34:39.587Z,40.37
2019-02-26T06:37:16.388Z,39.47
2019-02-26T06:39:44.323Z,40.83
2019-02-26T06:42:12.676Z,40.17
2019-02-26T06:44:43.545Z,43.37
2019-02-26T06:47:11.027Z,43.57
2019-02-26T06:49:38.601Z,47.07
2019-02-26T06:52:08.235Z,46.80
2019-02-26T06:54:35.540Z,51.97
2019-02-26T06:57:03.505Z,51.00
2019-02-26T06:59:33.866Z,52.20
2019-02-26T07:02:00.705Z,55.50
2019-02-26T07:04:30.109Z,57.03
2019-02-26T07:06:59.422Z,59.83
2019-02-26T07:09:27.585Z,59.00
2019-02-26T07:11:55.187Z,57.20
2019-02-26T07:14:24.845Z,56.27
2019-02-26T07:16:52.339Z,50.10
2019-02-26T07:19:26.110Z,44.20
2019-02-26T07:21:54.252Z,37.93
2019-02-26T07:24:23.063Z,40.90
2019-02-26T07:26:51.477Z,36.97
2019-02-26T07:29:19.552Z,36.77
2019-02-26T07:31:47.674Z,32.10
2019-02-26T07:34:18.331Z,28.33
2019-02-26T07:36:47.815Z,25.60
2019-02-26T07:39:15.972Z,23.13
2019-02-26T07:41:45.427Z,22.67
2019-02-26T07:44:18.603Z,21.17
2019-02-26T07:46:45.326Z,16.83
2019-02-26T07:49:13.305Z,14.30
2019-02-26T07:51:42.923Z,12.47
2019-02-26T07:54:10.630Z,13.83
2019-02-26T07:56:38.926Z,13.13
2019-02-26T07:59:09.419Z,13.27
2019-02-26T08:01:37.579Z,14.37
2019-02-26T08:04:06.241Z,13.60
2019-02-26T08:06:36.252Z,14.97
2019-02-26T08:09:09.140Z,14.23
2019-02-26T08:11:36.842Z,14.37
2019-02-26T08:14:05.339Z,15.13
2019-02-26T08:16:32.917Z,14.30
2019-02-26T08:19:01.370Z,13.47
2019-02-26T08:21:29.735Z,13.77
2019-02-26T08:23:57.593Z,14.27
2019-02-26T08:26:26.719Z,13.10
2019-02-26T08:28:54.333Z,12.37
2019-02-26T08:31:23.333Z,13.23
2019-02-26T08:33:51.861Z,14.13
2019-02-26T08:36:19.682Z,13.13
2019-02-26T08:38:47.217Z,15.13
2019-02-26T08:41:14.793Z,14.13
2019-02-26T08:43:46.308Z,15.27
2019-02-26T08:46:13.638Z,15.40
2019-02-26T08:48:43.318Z,15.43
2019-02-26T08:51:13.682Z,16.83
2019-02-26T08:53:40.037Z,18.03
2019-02-26T08:56:08.467Z,17.13
2019-02-26T08:58:36.156Z,18.53
2019-02-26T09:01:03.743Z,19.30
2019-02-26T09:03:40.177Z,21.20
2019-02-26T09:06:10.869Z,20.33
2019-02-26T09:08:32.902Z,19.50
2019-02-26T09:11:00.849Z,21.17
2019-02-26T09:13:31.633Z,22.87
2019-02-26T09:16:01.034Z,22.70
2019-02-26T09:18:31.531Z,23.03
2019-02-26T09:20:59.314Z,22.35
2019-02-26T09:23:28.802Z,22.90
2019-02-26T09:25:57.045Z,21.50
2019-02-26T09:28:27.076Z,21.42
2019-02-26T09:30:56.312Z,21.93
2019-02-26T09:33:30.590Z,23.15
2019-02-26T09:35:56.630Z,22.85
2019-02-26T09:38:25.538Z,22.93
2019-02-26T09:40:54.671Z,22.73
2019-02-26T09:43:24.483Z,22.50
2019-02-26T09:45:52.980Z,21.33
2019-02-26T09:48:22.007Z,19.57
2019-02-26T09:50:49.705Z,18.50
2019-02-26T09:53:17.667Z,16.80
2019-02-26T09:55:45.641Z,14.00
2019-02-26T09:58:13.957Z,13.95
2019-02-26T10:00:43.723Z,12.82
2019-02-26T10:03:13.200Z,12.43
2019-02-26T10:05:41.393Z,12.30
2019-02-26T10:08:09.223Z,13.98
2019-02-26T10:10:39.613Z,13.35
2019-02-26T10:13:06.403Z,12.05
2019-02-26T10:15:34.889Z,11.68
2019-02-26T10:18:04.888Z,10.50
2019-02-26T10:20:33.005Z,10.20
2019-02-26T10:23:03.261Z,10.53
2019-02-26T10:25:31.962Z,10.13
2019-02-26T10:28:03.041Z,10.72
2019-02-26T10:30:31.407Z,13.30
2019-02-26T10:33:01.760Z,12.10
2019-02-26T10:35:33.342Z,12.13
2019-02-26T10:38:02.077Z,11.18
2019-02-26T10:40:35.309Z,9.95
2019-02-26T10:42:57.446Z,9.55
2019-02-26T10:45:25.346Z,8.90
2019-02-26T10:47:54.197Z,7.97
2019-02-26T10:50:24.751Z,8.48
2019-02-26T10:52:52.797Z,9.33
2019-02-26T10:55:24.273Z,8.78
2019-02-26T10:57:52.464Z,8.85
2019-02-26T11:00:22.564Z,8.93
2019-02-26T11:02:50.985Z,8.98
2019-02-26T11:05:25.910Z,8.70
2019-02-26T11:07:49.733Z,7.55
2019-02-26T11:10:20.076Z,8.20
2019-02-26T11:12:48.151Z,8.00
2019-02-26T11:15:17.139Z,8.25
2019-02-26T11:17:45.692Z,9.43
2019-02-26T11:20:14.555Z,9.35
2019-02-26T11:22:43.109Z,8.38
2019-02-26T11:25:13.397Z,8.33
2019-02-26T11:27:43.961Z,8.78
2019-02-26T11:30:12.530Z,10.35
2019-02-26T11:32:42.206Z,9.35
2019-02-26T11:35:10.467Z,9.05
2019-02-26T11:37:37.998Z,9.88
2019-02-26T11:40:06.332Z,8.83
2019-02-26T11:42:33.863Z,8.50
2019-02-26T11:45:01.461Z,8.60
2019-02-26T11:47:29.023Z,9.85
2019-02-26T11:49:59.622Z,10.15
2019-02-26T11:52:27.193Z,9.15
2019-02-26T11:54:56.300Z,9.33
2019-02-26T11:57:24.839Z,9.03
2019-02-26T11:59:53.154Z,9.10
2019-02-26T12:02:26.702Z,9.33
2019-02-26T12:04:50.419Z,9.50
2019-02-26T12:07:17.999Z,10.70
2019-02-26T12:09:45.612Z,10.35
2019-02-26T12:12:13.509Z,9.40
2019-02-26T12:14:43.214Z,10.25
2019-02-26T12:17:10.626Z,10.55
2019-02-26T12:19:38.209Z,9.83
2019-02-26T12:22:06.223Z,10.85
2019-02-26T12:24:35.958Z,9.75
2019-02-26T12:27:03.748Z,10.43
2019-02-26T12:29:31.337Z,14.33
2019-02-26T12:32:01.192Z,15.10
2019-02-26T12:34:29.270Z,15.63
2019-02-26T12:36:59.634Z,16.45
2019-02-26T12:39:29.230Z,16.37
2019-02-26T12:41:56.763Z,16.93
2019-02-26T12:44:24.340Z,15.13
2019-02-26T12:46:53.692Z,15.35
2019-02-26T12:49:22.850Z,13.68
2019-02-26T12:51:53.742Z,13.50
2019-02-26T12:54:20.121Z,13.35
2019-02-26T12:56:49.051Z,12.85
2019-02-26T12:59:17.509Z,12.10
2019-02-26T13:01:46.807Z,10.95
2019-02-26T13:04:17.453Z,11.73
2019-02-26T13:06:48.431Z,12.47
2019-02-26T13:09:15.504Z,12.00
2019-02-26T13:12:00.511Z,12.40
2019-02-26T13:14:12.727Z,10.75
2019-02-26T13:16:42.490Z,9.95
2019-02-26T13:19:11.230Z,7.72
2019-02-26T13:21:42.728Z,8.05
2019-02-26T13:24:13.922Z,9.45
2019-02-26T13:26:38.948Z,8.95
2019-02-26T13:29:07.850Z,8.53
2019-02-26T13:31:41.904Z,9.25
2019-02-26T13:34:05.587Z,7.97
2019-02-26T13:36:36.353Z,7.92
2019-02-26T13:39:06.192Z,8.15
2019-02-26T13:41:38.845Z,8.25
2019-02-26T13:44:03.938Z,7.92
2019-02-26T13:46:31.661Z,7.70
2019-02-26T13:48:59.553Z,8.40
2019-02-26T13:51:29.081Z,7.85
2019-02-26T13:53:56.614Z,7.78
2019-02-26T13:56:24.256Z,8.30
2019-02-26T13:58:52.216Z,9.63
2019-02-26T14:01:19.832Z,10.08
2019-02-26T14:03:47.482Z,8.55
2019-02-26T14:06:15.362Z,8.25
2019-02-26T14:08:43.015Z,7.20
2019-02-26T14:11:10.635Z,6.90
2019-02-26T14:13:38.253Z,7.50
2019-02-26T14:16:05.927Z,6.55
2019-02-26T14:18:33.765Z,8.50
2019-02-26T14:21:01.702Z,8.50
2019-02-26T14:23:34.750Z,9.08
2019-02-26T14:25:59.269Z,9.58
2019-02-26T14:28:26.915Z,8.75
2019-02-26T14:30:55.150Z,8.25
2019-02-26T14:33:23.118Z,10.88
2019-02-26T14:35:50.943Z,9.78
2019-02-26T14:38:18.931Z,10.55
2019-02-26T14:40:46.677Z,11.75
2019-02-26T14:43:14.270Z,11.73
2019-02-26T14:45:41.890Z,12.07
2019-02-26T14:48:09.762Z,11.78
2019-02-26T14:50:37.376Z,13.20
2019-02-26T14:53:05.042Z,14.18
2019-02-26T14:55:32.684Z,14.28
2019-02-26T14:58:00.306Z,15.48
2019-02-26T15:00:27.924Z,15.68
2019-02-26T15:02:55.671Z,14.60
2019-02-26T15:05:23.585Z,14.45
2019-02-26T15:07:51.193Z,16.07
2019-02-26T15:10:20.520Z,8.35
2019-02-26T15:12:48.399Z,7.62
2019-02-26T15:15:15.995Z,6.87
2019-02-26T15:17:43.651Z,7.67
2019-02-26T15:20:13.312Z,7.85
2019-02-26T15:22:41.128Z,7.80
2019-02-26T15:25:12.094Z,7.45
2019-02-26T15:27:40.020Z,9.25
2019-02-26T15:30:09.386Z,7.30
2019-02-26T15:32:37.022Z,7.80
2019-02-26T15:35:04.951Z,8.30
2019-02-26T15:37:33.599Z,7.30
2019-02-26T15:40:01.196Z,7.70
2019-02-26T15:42:28.846Z,7.22
2019-02-26T15:44:57.670Z,5.00
2019-02-26T15:47:25.881Z,5.22
2019-02-26T15:49:53.447Z,10.08
2019-02-26T15:52:22.276Z,13.62
2019-02-26T15:54:50.175Z,14.40
2019-02-26T15:57:18.640Z,14.18
2019-02-26T15:59:46.429Z,15.30
2019-02-26T16:02:13.973Z,13.93
2019-02-26T16:04:41.840Z,14.30
2019-02-26T16:07:09.700Z,13.98
2019-02-26T16:09:37.297Z,13.72
2019-02-26T16:12:04.865Z,14.28
2019-02-26T16:14:32.759Z,15.00
2019-02-26T16:17:00.352Z,13.10
2019-02-26T16:19:27.898Z,13.60
2019-02-26T16:21:55.714Z,12.95
2019-02-26T16:24:23.661Z,14.18
2019-02-26T16:26:51.511Z,12.45
2019-02-26T16:29:19.377Z,12.78
2019-02-26T16:31:47.458Z,12.98
2019-02-26T16:34:15.086Z,12.03
2019-02-26T16:36:42.666Z,12.00
2019-02-26T16:39:10.215Z,11.95
2019-02-26T16:41:38.401Z,12.37
2019-02-26T16:44:06.524Z,12.80
2019-02-26T16:46:34.097Z,13.08
2019-02-26T16:49:01.660Z,12.82
2019-02-26T16:51:29.242Z,12.45
2019-02-26T16:53:57.227Z,12.65
2019-02-26T16:56:24.800Z,12.78
2019-02-26T16:58:52.711Z,13.15
2019-02-26T17:01:21.793Z,13.88
2019-02-26T17:03:49.871Z,13.03
2019-02-26T17:06:20.447Z,13.48
2019-02-26T17:08:48.026Z,13.45
2019-02-26T17:11:15.604Z,12.98
2019-02-26T17:13:44.178Z,14.30
2019-02-26T17:16:11.937Z,13.95
2019-02-26T17:18:40.604Z,13.78
2019-02-26T17:21:08.889Z,13.25
2019-02-26T17:23:36.562Z,14.53
2019-02-26T17:26:04.415Z,14.98
2019-02-26T17:28:35.390Z,15.65
2019-02-26T17:31:02.976Z,16.55
2019-02-26T17:33:30.570Z,15.27
2019-02-26T17:35:59.566Z,15.35
2019-02-26T17:38:27.487Z,16.37
2019-02-26T17:40:55.092Z,15.43
2019-02-26T17:43:25.139Z,16.23
2019-02-26T17:45:54.337Z,16.27
2019-02-26T17:48:22.158Z,20.75
2019-02-26T17:50:49.733Z,17.90
2019-02-26T17:53:17.578Z,17.23
2019-02-26T17:55:46.888Z,17.70
2019-02-26T17:58:14.545Z,18.00
2019-02-26T18:00:43.643Z,17.60
2019-02-26T18:03:11.538Z,17.60
2019-02-26T18:05:47.924Z,17.63
2019-02-26T18:08:08.485Z,17.90
2019-02-26T18:10:36.713Z,19.47
2019-02-26T18:13:04.749Z,17.17
2019-02-26T18:15:32.511Z,18.40
2019-02-26T18:18:00.073Z,18.30
2019-02-26T18:20:28.717Z,17.90
2019-02-26T18:22:59.922Z,17.80
2019-02-26T18:25:26.518Z,17.53
2019-02-26T18:27:54.083Z,18.45
2019-02-26T18:30:21.725Z,18.50
2019-02-26T18:32:50.577Z,18.97
2019-02-26T18:35:18.704Z,17.77
2019-02-26T18:37:46.695Z,18.10
2019-02-26T18:40:14.959Z,16.40
2019-02-26T18:42:49.914Z,17.93
2019-02-26T18:45:18.468Z,17.23
2019-02-26T18:47:47.603Z,18.33
2019-02-26T18:50:15.452Z,17.12
2019-02-26T18:52:43.356Z,19.37
2019-02-26T18:55:12.756Z,18.27
2019-02-26T18:57:43.672Z,18.73
2019-02-26T19:00:18.864Z,18.80
2019-02-26T19:02:46.570Z,18.27
2019-02-26T19:05:14.651Z,19.23
2019-02-26T19:07:42.600Z,20.93
2019-02-26T19:10:11.095Z,19.73
2019-02-26T19:12:38.643Z,20.10
2019-02-26T19:15:07.103Z,20.73
2019-02-26T19:17:34.573Z,20.53
2019-02-26T19:20:02.847Z,20.90
2019-02-26T19:22:30.452Z,20.70
2019-02-26T19:24:58.634Z,20.87
2019-02-26T19:27:26.234Z,20.37
2019-02-26T19:29:54.206Z,20.93
2019-02-26T19:32:22.305Z,20.73
2019-02-26T19:34:49.771Z,20.73
2019-02-26T19:37:19.134Z,21.13
2019-02-26T19:39:47.139Z,20.53
2019-02-26T19:42:17.391Z,20.27
2019-02-26T19:44:44.488Z,21.70
2019-02-26T19:47:11.976Z,20.00
2019-02-26T19:49:40.261Z,21.10
2019-02-26T19:52:07.848Z,22.40
2019-02-26T19:54:36.014Z,22.00
2019-02-26T19:57:03.981Z,22.53
2019-02-26T19:59:31.531Z,24.13
2019-02-26T20:01:59.667Z,22.90
2019-02-26T20:04:27.976Z,22.63
2019-02-26T20:06:58.478Z,22.00
2019-02-26T20:09:24.945Z,23.83
2019-02-26T20:11:53.560Z,21.33
2019-02-26T20:14:22.344Z,23.77
2019-02-26T20:16:49.885Z,22.97
2019-02-26T20:19:17.775Z,22.87
2019-02-26T20:21:45.351Z,22.60
2019-02-26T20:24:16.454Z,23.83
2019-02-26T20:26:42.666Z,20.83
2019-02-26T20:29:10.258Z,23.67
2019-02-26T20:31:37.838Z,22.63
2019-02-26T20:34:06.660Z,23.33
2019-02-26T20:36:35.123Z,22.90
2019-02-26T20:39:07.626Z,22.97
2019-02-26T20:41:33.042Z,23.93
2019-02-26T20:44:00.594Z,25.00
2019-02-26T20:46:28.218Z,24.93
2019-02-26T20:48:55.775Z,26.67
2019-02-26T20:51:26.878Z,27.20
2019-02-26T20:53:53.042Z,27.33
2019-02-26T20:56:20.594Z,28.90
2019-02-26T20:58:48.239Z,30.43
2019-02-26T21:01:15.769Z,30.37
2019-02-26T21:03:43.320Z,27.87
2019-02-26T21:06:10.852Z,30.97
2019-02-26T21:08:38.819Z,29.73
2019-02-26T21:11:06.390Z,33.27
2019-02-26T21:13:34.996Z,36.20
2019-02-26T21:16:03.410Z,38.70
2019-02-26T21:18:31.277Z,36.50
2019-02-26T21:20:59.389Z,37.30
2019-02-26T21:23:27.826Z,32.93
2019-02-26T21:25:56.101Z,33.13
2019-02-26T21:28:23.650Z,32.97
2019-02-26T21:30:51.230Z,33.33
2019-02-26T21:33:19.002Z,33.47
2019-02-26T21:35:46.583Z,34.90
2019-02-26T21:38:14.778Z,34.30
2019-02-26T21:40:42.386Z,33.50
2019-02-26T21:43:09.988Z,30.40
2019-02-26T21:45:37.895Z,30.10
2019-02-26T21:48:05.801Z,28.90
2019-02-26T21:50:35.224Z,34.70
2019-02-26T21:53:04.179Z,39.87
2019-02-26T21:55:40.510Z,44.97
2019-02-26T21:58:01.111Z,48.57
2019-02-26T22:00:29.263Z,54.33
2019-02-26T22:02:56.863Z,58.27
2019-02-26T22:05:24.522Z,57.90
2019-02-26T22:07:52.961Z,58.93
2019-02-26T22:10:20.687Z,60.93
2019-02-26T22:12:48.598Z,60.47
2019-02-26T22:15:16.767Z,61.97
2019-02-26T22:17:44.664Z,65.47
2019-02-26T22:20:22.102Z,64.67
2019-02-26T22:22:42.415Z,62.77
2019-02-26T22:25:16.021Z,61.93
2019-02-26T22:27:40.542Z,59.97
2019-02-26T22:30:09.397Z,57.97
2019-02-26T22:32:38.785Z,54.57
2019-02-26T22:35:06.686Z,53.63
2019-02-26T22:37:34.869Z,54.97
2019-02-26T22:40:02.627Z,49.97
2019-02-26T22:42:30.546Z,47.33
2019-02-26T22:44:58.141Z,45.57
2019-02-26T22:47:25.743Z,43.93
2019-02-26T22:49:53.981Z,43.87
2019-02-26T22:52:22.698Z,44.37
2019-02-26T22:54:50.982Z,41.70
2019-02-26T22:57:18.507Z,37.20
2019-02-26T22:59:46.362Z,35.77
2019-02-26T23:02:14.105Z,33.53
2019-02-26T23:04:41.994Z,32.27
2019-02-26T23:07:09.908Z,29.27
2019-02-26T23:09:37.792Z,26.23
2019-02-26T23:12:05.690Z,23.53
2019-02-26T23:14:35.901Z,22.80
2019-02-26T23:17:04.785Z,21.27
2019-02-26T23:19:36.392Z,20.20
2019-02-26T23:22:01.724Z,19.73
2019-02-26T23:24:29.835Z,20.17
2019-02-26T23:26:57.406Z,21.50
2019-02-26T23:29:27.778Z,22.00
2019-02-26T23:31:54.564Z,21.87
2019-02-26T23:34:22.734Z,21.40
2019-02-26T23:36:50.399Z,22.23
2019-02-26T23:39:17.965Z,21.13
2019-02-26T23:41:46.823Z,22.90
2019-02-26T23:44:17.742Z,23.07
2019-02-26T23:46:44.140Z,23.03
2019-02-26T23:49:14.127Z,21.60
2019-02-26T23:51:41.395Z,20.83
2019-02-26T23:54:09.350Z,20.00
2019-02-26T23:56:36.923Z,19.63
2019-02-26T23:59:04.842Z,19.13
